Latest Coastal Weather Observations for Ballina

IDN60701

Issued at 5:11 pm EST Tuesday 7 July 2015 (issued every 10 minutes, with the page automatically refreshed every 10 minutes)

About coastal observations | Map of coastal stations | Coastal observations for NSW | Marine services | Other Formats
Station Details ID: 058198 Name: BALLINA AIRPORT AWS Lat: -28.84 Lon: 153.56 Height: 1.3 m
Data from the previous 72 hours. | See also: Recent months at Ballina
Date/Time
EST
Temp

°C
Wind Pressure Rain
since 9am
mm
Weather Cloud Vis
km
Sea
Height
m
Swell
Dir
 
Speed
knots
Gust
knots
hPa Trend Height
m
Period
s
Dir
07/05:00pm 16.1 SSW 7 11 1018.8 - 0.0 - - 10 - - - -
07/04:30pm 16.8 SSW 9 12 1018.4 - 0.0 - - 10 - - - -
07/04:00pm 17.2 S 12 16 1018.1 - 0.0 - - 10 - - - -
07/03:30pm 17.7 S 10 14 1018.0 - 0.0 - - 10 - - - -
07/03:00pm 17.8 SSW 9 14 1018.0 - 0.0 - - 10 - - - -
07/02:30pm 17.5 SSW 11 15 1017.7 - 0.0 - - 10 - - - -
07/02:00pm 17.4 SSW 11 16 1017.6 - 0.0 - - 10 - - - -
07/01:30pm 17.7 S 11 16 1017.5 - 0.0 - - 10 - - - -
07/01:00pm 18.2 S 12 16 1017.5 - 0.0 - - 10 - - - -
07/12:30pm 17.9 SSW 11 15 1017.7 - 0.0 - - 10 - - - -
07/12:00pm 17.8 SW 9 13 1017.9 - 0.0 - - 10 - - - -
07/11:30am 17.4 SW 9 13 1018.3 - 0.0 - - 10 - - - -
07/11:00am 16.9 SW 11 16 1018.5 - 0.0 - - 10 - - - -
07/10:30am 16.6 SW 10 15 1018.7 - 0.0 - - 10 - - - -
07/10:00am 16.0 SW 11 16 1018.8 - 0.0 - - 10 - - - -
07/09:30am 15.5 WSW 10 17 1019.0 - 0.0 - - 10 - - - -
07/09:00am 15.0 WSW 10 12 1018.9 - 0.0 - - 10 - - - -
07/08:30am 14.0 WSW 9 11 1018.4 - 0.0 - - 10 - - - -
07/08:00am 12.7 WSW 8 9 1018.0 - 0.0 - - 10 - - - -
07/07:30am 11.1 WSW 6 8 1017.6 - 0.0 - - 10 - - - -
07/07:00am 9.8 SW 3 6 1017.2 - 0.0 - - 10 - - - -
07/06:30am 10.1 W 6 7 1016.5 - 0.0 - - 10 - - - -
07/06:00am 12.4 WNW 10 16 1015.8 - 0.0 - - 10 - - - -
07/05:30am 12.2 WNW 10 13 1015.3 - 0.0 - - 10 - - - -
07/05:00am 11.8 WNW 9 12 1015.2 - 0.0 - - 10 - - - -
07/04:30am 12.3 WNW 10 13 1015.0 - 0.0 - - 10 - - - -
07/04:00am 12.3 WNW 11 14 1015.1 - 0.0 - - 10 - - - -
07/03:30am 9.8 WNW 8 9 1015.5 - 0.0 - - 10 - - - -
07/03:00am 10.2 WNW 3 4 1015.7 - 0.0 - - 10 - - - -
07/02:30am 10.6 NW 4 5 1016.1 - 0.0 - - 10 - - - -
07/02:00am 10.7 W 3 5 1016.0 - 0.0 - - 10 - - - -
07/01:30am 11.4 WNW 5 6 1016.1 - 0.0 - - 10 - - - -
07/01:00am 13.0 WNW 5 5 1016.0 - 0.0 - - 10 - - - -
07/12:30am 14.2 WNW 8 11 1015.8 - 0.0 - - 10 - - - -
07/12:00am 12.6 NW 8 12 1015.9 - 0.0 - - 10 - - - -
 
Date/Time
EST
Temp

°C
Wind Pressure Rain
since 9am
mm
Weather Cloud Vis
km
Sea
Height
m
Swell
Dir
 
Speed
knots
Gust
knots
hPa Trend Height
m
Period
s
Dir
06/11:30pm 9.7 NNW 2 5 1015.9 - 0.0 - - 10 - - - -
06/11:00pm 10.5 CALM 0 0 1015.9 - 0.0 - - 10 - - - -
06/10:30pm 10.6 CALM 0 0 1016.1 - 0.0 - - 10 - - - -
06/10:00pm 10.9 NNW 1 4 1016.1 - 0.0 - - 10 - - - -
06/09:30pm 11.0 CALM 0 0 1016.0 - 0.0 - - 10 - - - -
06/09:00pm 11.8 CALM 0 0 1015.8 - 0.0 - - 10 - - - -
06/08:30pm 12.9 NNW 3 4 1015.9 - 0.0 - - 10 - - - -
06/08:00pm 13.6 CALM 0 0 1015.9 - 0.0 - Partly cloudy 10 - - - -
06/07:30pm 13.4 CALM 0 1 1015.7 - 0.0 - Partly cloudy 10 - - - -
06/07:00pm 14.2 NNW 6 7 1015.4 - 0.0 - - 10 - - - -
06/06:30pm 14.4 NW 5 6 1015.2 - 0.0 - - 10 - - - -
06/06:00pm 14.9 NNW 5 6 1014.9 - 0.0 - - 10 - - - -
06/05:30pm 16.0 NNW 5 6 1014.3 - 0.0 - - 10 - - - -
06/05:00pm 18.0 N 4 5 1014.1 - 0.0 - - 10 - - - -
06/04:30pm 20.3 N 5 7 1014.1 - 0.0 - - 10 - - - -
06/04:00pm 21.5 NNW 6 9 1014.0 - 0.0 - - 10 - - - -
06/03:30pm 22.2 NNW 6 9 1014.1 - 0.0 - - 10 - - - -
06/03:00pm 22.4 NW 9 12 1014.3 - 0.0 - - 10 - - - -
06/02:30pm 22.7 NW 8 13 1014.4 - 0.0 - - 10 - - - -
06/02:00pm 22.3 NW 9 15 1014.3 - 0.0 - - 10 - - - -
06/01:30pm 22.3 NW 11 16 1014.7 - 0.0 - - 10 - - - -
06/01:00pm 22.4 WNW 13 18 1015.1 - 0.0 - - 10 - - - -
06/12:30pm 22.3 WNW 10 16 1015.5 - 0.0 - - 10 - - - -
06/12:00pm 22.0 NW 9 11 1015.9 - 0.0 - - 10 - - - -
06/11:30am 21.6 NW 8 15 1016.5 - 0.0 - - 10 - - - -
06/11:00am 21.5 NW 8 12 1017.1 - 0.0 - - 10 - - - -
06/10:30am 20.9 NNW 9 11 1017.4 - 0.0 - - 10 - - - -
06/10:00am 20.6 NNW 8 11 1017.6 - 0.0 - - 10 - - - -
06/09:30am 19.3 NNW 4 6 1018.0 - 0.0 - - 10 - - - -
06/09:00am 17.7 NNW 4 6 1018.1 - 0.0 - - 10 - - - -
06/08:30am 15.2 CALM 0 0 1018.1 - 0.0 - - 10 - - - -
06/08:00am 12.7 CALM 0 0 1018.1 - 0.0 - - 10 - - - -
06/07:30am 9.9 CALM 0 0 1018.1 - 0.0 - - 10 - - - -
06/07:00am 8.6 CALM 0 0 1018.0 - 0.0 - - 10 - - - -
06/06:30am 8.2 N 1 3 1017.9 - 0.0 - - 10 - - - -
06/06:00am 7.5 CALM 0 3 1017.8 - 0.0 - - 10 - - - -
06/05:30am 7.6 N 2 3 1017.8 - 0.0 - - 10 - - - -
06/05:00am 8.3 N 2 4 1017.8 - 0.0 - - 10 - - - -
06/04:30am 9.0 CALM 0 0 1017.8 - 0.0 - - 10 - - - -
06/04:00am 8.9 CALM 0 0 1017.9 - 0.0 - - 10 - - - -
06/03:30am 8.7 N 1 3 1018.2 - 0.0 - - 10 - - - -
06/03:00am 8.6 N 3 5 1018.5 - 0.0 - - 10 - - - -
06/02:30am 9.6 CALM 0 0 1018.8 - 0.0 - - 10 - - - -
06/02:00am 9.5 N 3 4 1019.2 - 0.0 - - 10 - - - -
06/01:30am 9.5 N 3 4 1019.4 - 0.0 - - 10 - - - -
06/01:00am 9.3 NNW 1 4 1019.5 - 0.0 - - 10 - - - -
06/12:30am 9.8 CALM 0 0 1019.6 - 0.0 - - 10 - - - -
06/12:00am 10.0 NNW 1 3 1019.8 - 0.0 - - 10 - - - -
 
Date/Time
EST
Temp

°C
Wind Pressure Rain
since 9am
mm
Weather Cloud Vis
km
Sea
Height
m
Swell
Dir
 
Speed
knots
Gust
knots
hPa Trend Height
m
Period
s
Dir
05/11:30pm 10.4 NNW 3 4 1020.0 - 0.0 - Partly cloudy 10 - - - -
05/11:00pm 11.3 NNW 4 4 1020.2 - 0.0 - Partly cloudy 10 - - - -
05/10:30pm 11.5 NNW 3 4 1020.5 - 0.0 - Cloudy 10 - - - -
05/10:00pm 11.7 CALM 0 3 1020.4 - 0.0 - Cloudy 10 - - - -
05/09:30pm 12.4 N 1 4 1020.0 - 0.0 - Partly cloudy 10 - - - -
05/09:00pm 12.8 N 5 6 1020.0 - 0.0 - Partly cloudy 10 - - - -
05/08:30pm 13.1 N 5 6 1019.9 - 0.0 - Partly cloudy 10 - - - -
05/08:00pm 11.5 N 3 3 1019.7 - 0.0 - - 10 - - - -
05/07:30pm 11.7 CALM 0 4 1019.6 - 0.0 - - 10 - - - -
05/07:00pm 12.7 CALM 0 0 1019.6 - 0.0 - - 10 - - - -
05/06:30pm 12.9 CALM 0 0 1019.4 - 0.0 - - 10 - - - -
05/06:00pm 13.7 N 3 5 1019.3 - 0.0 - - 10 - - - -
05/05:30pm 15.7 NNE 5 6 1019.3 - 0.0 - - 10 - - - -
05/05:00pm 16.8 NNE 6 7 1019.3 - 0.0 - - 10 - - - -
05/04:30pm 18.4 NNE 5 6 1019.4 - 0.0 - - 10 - - - -
05/04:00pm 19.0 NE 6 8 1019.2 - 0.0 - Partly cloudy 10 - - - -
05/03:30pm 20.0 NNE 6 8 1019.1 - 0.0 - - 10 - - - -
05/03:00pm 21.8 NW 5 8 1019.2 - 0.0 - Mostly clear 10 - - - -
05/02:30pm 21.9 WNW 6 9 1019.2 - 0.0 - Partly cloudy 10 - - - -
05/02:00pm 21.5 WNW 6 8 1019.3 - 0.0 - Partly cloudy 10 - - - -
05/01:30pm 21.4 WNW 9 13 1019.5 - 0.0 - Partly cloudy 10 - - - -
05/01:00pm 21.5 WNW 10 14 1019.7 - 0.0 - Partly cloudy 10 - - - -
05/12:30pm 20.9 W 12 15 1020.1 - 0.0 - - 10 - - - -
05/12:00pm 21.0 WNW 10 15 1020.7 - 0.0 - - 10 - - - -
05/11:30am 20.9 W 8 11 1021.3 - 0.0 - - 10 - - - -
05/11:00am 20.5 WNW 8 11 1021.6 - 0.0 - - 10 - - - -
05/10:30am 20.2 WNW 5 8 1022.0 - 0.0 - - 10 - - - -
05/10:00am 18.9 W 9 12 1022.2 - 0.0 - - 10 - - - -
05/09:30am 17.2 W 5 7 1022.3 - 0.0 - - 10 - - - -
05/09:00am 15.4 WSW 8 11 1022.3 - 0.0 - - 10 - - - -
05/08:30am 14.3 W 4 6 1022.3 - 0.0 - Partly cloudy 10 - - - -
05/08:00am 12.6 CALM 0 0 1022.2 - 0.0 - Partly cloudy 10 - - - -
05/07:30am 10.6 WNW 2 4 1022.0 - 0.0 - Partly cloudy 10 - - - -
05/07:00am 8.4 WNW 3 4 1021.9 - 0.0 - - 10 - - - -
05/06:59am 8.6 WNW 3 4 1021.9 - 0.0 - - 10 - - - -
05/06:30am 7.8 NW 4 5 1021.6 - 0.0 - Partly cloudy 1 - - - -
05/06:00am 8.5 CALM 0 0 1021.3 - 0.0 - - 1 - - - -
05/05:30am 8.8 CALM 0 0 1021.0 - 0.0 - - 0.8 - - - -
05/05:00am 9.3 CALM 0 0 1020.9 - 0.0 - Partly cloudy 0.5 - - - -
05/04:30am 9.5 N 1 3 1020.8 - 0.0 - - 1 - - - -
05/04:00am 9.6 NW 3 4 1020.9 - 0.0 - - 1 - - - -
05/03:30am 10.2 CALM 0 0 1021.0 - 0.0 - - 0.4 - - - -
05/03:03am 10.9 CALM 0 0 1021.2 - 0.0 - Partly cloudy 5 - - - -
05/03:00am 11.0 CALM 0 0 1021.2 - 0.0 - Partly cloudy 6 - - - -
05/02:55am 10.9 CALM 0 0 1021.2 - 0.0 - Partly cloudy 6 - - - -
05/02:30am 11.8 CALM 0 0 1021.2 - 0.0 - Partly cloudy 5 - - - -
05/02:22am 11.6 CALM 0 0 1021.3 - 0.0 - Partly cloudy 5 - - - -
05/02:00am 12.2 CALM 0 0 1021.4 - 0.0 - Cloudy 10 - - - -
05/01:30am 12.6 CALM 0 0 1021.5 - 0.0 - Cloudy 10 - - - -
05/01:00am 12.7 CALM 0 0 1021.7 - 0.0 - Cloudy 10 - - - -
05/12:30am 12.5 CALM 0 0 1021.7 - 0.0 - Cloudy 10 - - - -
05/12:00am 12.6 NNW 3 5 1021.7 - 0.0 - Mostly cloudy 10 - - - -
 
Date/Time
EST
Temp

°C
Wind Pressure Rain
since 9am
mm
Weather Cloud Vis
km
Sea
Height
m
Swell
Dir
 
Speed
knots
Gust
knots
hPa Trend Height
m
Period
s
Dir
04/11:30pm 11.8 CALM 0 0 1021.7 - 0.0 - Cloudy 10 - - - -
04/11:00pm 11.1 E 1 3 1021.9 - 0.0 - Cloudy 10 - - - -
04/10:30pm 10.4 CALM 0 0 1021.7 - 0.0 - Cloudy 10 - - - -
04/10:00pm 9.7 CALM 0 0 1021.8 - 0.0 - Cloudy 10 - - - -
04/09:30pm 9.9 CALM 0 0 1021.7 - 0.0 - Partly cloudy 10 - - - -
04/09:00pm 10.0 CALM 0 0 1021.6 - 0.0 - - 10 - - - -
04/08:34pm 10.1 CALM 0 0 1021.6 - 0.0 - - 10 - - - -
04/08:30pm 10.0 CALM 0 0 1021.6 - 0.0 - - 10 - - - -
04/08:14pm 10.2 CALM 0 0 1021.6 - 0.0 - - 5 - - - -
04/08:00pm 10.8 CALM 0 0 1021.6 - 0.0 - - 9 - - - -
04/07:30pm 11.4 CALM 0 0 1021.5 - 0.0 - - 10 - - - -
04/07:00pm 11.8 CALM 0 0 1021.3 - 0.0 - - 10 - - - -
04/06:30pm 12.1 CALM 0 0 1021.1 - 0.0 - - 10 - - - -
04/06:00pm 13.2 CALM 0 0 1020.8 - 0.0 - - 10 - - - -
04/05:30pm 13.9 CALM 0 0 1020.5 - 0.0 - - 10 - - - -

Other Formats:

Comma delimited format used in spreadsheet applications
http://www.bom.gov.au/fwo/IDN60701/IDN60701.94596.axf

JavaScript Object Notation format (JSON) in row-major order
http://www.bom.gov.au/fwo/IDN60701/IDN60701.94596.json